In Rescue
 
Open Full Screen Window  High Contrast Mode
Wind Gusting 00 knots
09
March 19, 2019 6:52 PM EDT
Weather Information
Wind Direction
  240 °
Wind Speed
  09 kt (10 mph)
Wind Gust
  00 kt (0 mph)
Altimeter
30.29 in
Visibility
10 SM
Temperature
08° C
46° F
Dewpoint
-05° C
23° F
Humidity
40%
1hr Rain Fall
00.00 in.
24hr Rain Fall
00.00 in.
Sky Condition
Scattered @ 6,000 ft
VFR

METAR KRMY 192252Z AUTO 24009KT 10SM SCT060 08/M05 A3029 RMK AO2 T00781053

FAA Disclaimer: The data displayed is for advisory purposes only and is not to be used for flight planning or operations.